Time;durP1;ratioP1;P1;durP2;ratioP2;P2;SDS_P1;SDS_P2;PMS_P1;PMS_P2;Temp;Humidity;BMP_temperature;BMP_pressure;BME280_temperature;BME280_humidity;BME280_pressure;Samples;Min_cycle;Max_cycle;Signal;HPM_P1;HPM_P2
2022/04/13 00:10:31;;;;;;;;;26.50;23.00;;;;;3.18;100.00;101456.25;3721342;38;20411;-46
2022/04/13 00:13:05;;;;;;;;;20.00;19.00;;;;;3.12;100.00;101451.34;3721229;37;20554;-48
2022/04/13 00:15:39;;;;;;;;;24.75;23.50;;;;;3.10;100.00;101455.13;3722098;37;20472;-45
2022/04/13 00:18:14;;;;;;;;;19.50;18.75;;;;;3.10;100.00;101468.50;3722074;37;20444;-48
2022/04/13 00:20:45;;;;;;;;;22.50;22.00;;;;;2.98;100.00;101460.41;3722322;38;20437;-48
2022/04/13 00:23:15;;;;;;;;;21.50;18.75;;;;;3.02;100.00;101470.87;3722236;37;20499;-50
2022/04/13 00:33:22;;;;;;;;;20.00;18.00;;;;;2.87;100.00;101464.84;3721466;37;20390;-45
2022/04/13 00:35:54;;;;;;;;;19.75;17.25;;;;;2.87;100.00;101472.84;3721011;37;20452;-46
2022/04/13 00:41:02;;;;;;;;;22.00;21.00;;;;;2.84;100.00;101462.38;3721217;37;20518;-47
2022/04/13 00:43:36;;;;;;;;;17.00;16.25;;;;;2.79;100.00;101462.72;3721597;38;20284;-45
2022/04/13 01:01:25;;;;;;;;;18.00;16.00;;;;;2.55;100.00;101456.50;3721467;38;20354;-47
2022/04/13 01:04:01;;;;;;;;;20.75;19.25;;;;;2.53;100.00;101463.75;3720794;37;20231;-49
2022/04/13 01:08:55;;;;;;;;;29.50;28.00;;;;;2.43;100.00;101460.91;3721376;38;20378;-49
2022/04/13 01:11:26;;;;;;;;;20.25;19.25;;;;;2.38;100.00;101456.84;3720668;38;20344;-48
2022/04/13 01:13:55;;;;;;;;;18.25;15.25;;;;;2.37;100.00;101458.66;3721649;38;20288;-48
2022/04/13 01:16:24;;;;;;;;;18.00;17.25;;;;;2.38;100.00;101463.03;3721274;37;20404;-48
2022/04/13 01:18:53;;;;;;;;;21.25;18.00;;;;;2.37;100.00;101461.31;3721675;38;20302;-47
2022/04/13 01:24:12;;;;;;;;;22.75;21.25;;;;;2.42;100.00;101456.50;3720857;38;20477;-45
2022/04/13 01:26:39;;;;;;;;;18.25;18.25;;;;;2.39;100.00;101450.53;3721452;37;20400;-45
2022/04/13 01:31:40;;;;;;;;;22.50;21.75;;;;;2.36;100.00;101456.09;3721498;38;20415;-44
2022/04/13 01:36:46;;;;;;;;;22.25;21.00;;;;;2.30;100.00;101444.03;3721585;38;20398;-43
2022/04/13 01:41:43;;;;;;;;;21.00;20.00;;;;;2.32;100.00;101458.13;3721243;37;21566;-44
2022/04/13 01:46:41;;;;;;;;;20.00;20.00;;;;;2.27;100.00;101450.44;3721212;38;21344;-48
2022/04/13 01:49:28;;;;;;;;;21.75;19.00;;;;;2.09;100.00;101422.34;3721263;37;21494;-49
2022/04/13 01:54:28;;;;;;;;;19.00;16.00;;;;;2.00;100.00;101415.00;3721408;38;21349;-47
2022/04/13 01:57:04;;;;;;;;;16.50;16.50;;;;;2.22;100.00;101454.37;3721279;37;21306;-47
2022/04/13 01:59:34;;;;;;;;;15.75;14.75;;;;;2.19;100.00;101454.59;3721545;38;21268;-49
2022/04/13 02:02:05;;;;;;;;;16.00;15.25;;;;;2.23;100.00;101459.63;3721386;37;21355;-48
2022/04/13 02:04:43;;;;;;;;;14.25;13.50;;;;;2.19;100.00;101454.59;3721315;38;21300;-48
2022/04/13 02:07:17;;;;;;;;;18.00;16.25;;;;;2.05;100.00;101428.91;3721257;38;21385;-48
2022/04/13 02:12:25;;;;;;;;;19.25;18.25;;;;;2.17;100.00;101452.03;3721410;37;21230;-48
2022/04/13 02:15:00;;;;;;;;;20.00;19.00;;;;;2.18;100.00;101455.56;3721608;37;21248;-46
2022/04/13 02:17:30;;;;;;;;;23.75;23.75;;;;;2.02;100.00;101433.59;3721509;38;21301;-46
2022/04/13 02:22:38;;;;;;;;;15.50;14.50;;;;;2.11;100.00;101447.13;3721061;38;21221;-47
2022/04/13 02:25:10;;;;;;;;;19.50;19.50;;;;;2.12;100.00;101451.50;3721328;37;21084;-47
2022/04/13 02:30:05;;;;;;;;;18.75;18.75;;;;;2.14;100.00;101452.25;3720858;38;21282;-48
2022/04/13 02:32:35;;;;;;;;;18.00;17.75;;;;;2.20;100.00;101454.50;3721381;37;21162;-47
2022/04/13 02:35:09;;;;;;;;;14.75;14.75;;;;;2.19;100.00;101444.78;3721261;38;21374;-48
2022/04/13 02:40:19;;;;;;;;;17.50;17.50;;;;;2.13;100.00;101445.22;3721128;37;21223;-50
2022/04/13 02:42:47;;;;;;;;;14.25;14.00;;;;;2.17;100.00;101453.84;3721286;38;21369;-48
2022/04/13 02:45:14;;;;;;;;;18.00;16.75;;;;;2.18;100.00;101448.41;3721320;38;21316;-50
2022/04/13 02:47:49;;;;;;;;;19.25;18.50;;;;;1.95;100.00;101411.81;3720491;37;21272;-49
2022/04/13 02:50:23;;;;;;;;;26.75;25.50;;;;;2.13;100.00;101444.34;3721201;38;21482;-51
2022/04/13 02:52:56;;;;;;;;;18.25;17.50;;;;;1.97;100.00;101421.44;3721352;38;21435;-48
2022/04/13 02:55:34;;;;;;;;;22.00;22.00;;;;;2.07;100.00;101436.81;3721399;37;21222;-49
2022/04/13 03:18:35;;;;;;;;;19.50;17.75;;;;;2.01;100.00;101438.09;3721226;37;21077;-46
2022/04/13 03:21:06;;;;;;;;;17.75;16.50;;;;;2.13;100.00;101441.69;3721678;38;21259;-49
2022/04/13 03:23:37;;;;;;;;;15.00;14.25;;;;;2.14;100.00;101451.41;3721232;37;21392;-46
2022/04/13 03:28:49;;;;;;;;;21.25;20.50;;;;;2.19;100.00;101441.25;3721193;38;21188;-47
2022/04/13 03:31:23;;;;;;;;;20.00;19.00;;;;;2.27;100.00;101438.91;3721369;37;21184;-48
2022/04/13 03:34:01;;;;;;;;;20.00;19.00;;;;;2.34;100.00;101437.50;3721047;38;21227;-49
2022/04/13 03:36:39;;;;;;;;;19.50;18.00;;;;;2.48;100.00;101450.72;3721101;37;21256;-47
2022/04/13 03:39:17;;;;;;;;;21.00;19.50;;;;;2.51;100.00;101439.81;3721301;37;21236;-46
2022/04/13 03:41:51;;;;;;;;;19.25;18.25;;;;;2.36;100.00;101405.34;3721510;37;21218;-47
2022/04/13 03:44:22;;;;;;;;;19.75;19.75;;;;;2.61;100.00;101426.63;3720939;38;21177;-49
2022/04/13 03:46:59;;;;;;;;;14.75;14.75;;;;;2.67;100.00;101428.84;3721510;37;21258;-47
2022/04/13 04:10:15;;;;;;;;;12.50;10.00;;;;;3.56;100.00;101447.16;3721565;38;20981;-48
2022/04/13 04:12:42;;;;;;;;;11.50;11.00;;;;;3.59;100.00;101439.75;3721232;37;21161;-47
2022/04/13 04:15:10;;;;;;;;;12.25;12.25;;;;;3.68;100.00;101448.88;3721489;37;21032;-49
2022/04/13 04:17:44;;;;;;;;;15.75;15.00;;;;;3.67;100.00;101447.16;3721522;37;21146;-48
2022/04/13 04:20:15;;;;;;;;;13.00;12.75;;;;;3.75;100.00;101449.25;3721307;37;21023;-47
2022/04/13 04:22:46;;;;;;;;;8.75;8.25;;;;;3.83;100.00;101458.41;3721387;38;21360;-48
2022/04/13 04:25:17;;;;;;;;;21.75;17.75;;;;;3.80;100.00;101449.75;3721315;37;21079;-48
2022/04/13 04:40:37;;;;;;;;;28.25;26.50;;;;;4.02;100.00;101457.84;3721519;37;21132;-47
2022/04/13 04:43:10;;;;;;;;;25.25;23.50;;;;;3.85;100.00;101427.03;3721099;37;21115;-48
2022/04/13 04:45:38;;;;;;;;;18.50;18.25;;;;;4.10;100.00;101466.16;3721328;37;21229;-47
2022/04/13 04:48:06;;;;;;;;;17.00;16.50;;;;;4.20;100.00;101460.87;3721350;38;21268;-50
2022/04/13 04:58:31;;;;;;;;;15.00;14.75;;;;;4.48;100.00;101465.78;3720491;37;21041;-48
2022/04/13 05:00:58;;;;;;;;;11.50;10.75;;;;;4.51;100.00;101475.41;3720531;37;20927;-49
2022/04/13 05:03:24;;;;;;;;;18.25;17.25;;;;;4.62;100.00;101462.00;3721190;38;20945;-48
2022/04/13 05:05:51;;;;;;;;;17.50;16.75;;;;;4.50;100.00;101425.47;3721202;37;21022;-48
2022/04/13 05:08:22;;;;;;;;;16.25;16.25;;;;;4.72;100.00;101459.41;3721573;38;21064;-48
2022/04/13 05:23:49;;;;;;;;;14.50;10.75;;;;;5.16;100.00;101428.97;3721893;37;20989;-48
2022/04/13 05:26:24;;;;;;;;;14.50;12.50;;;;;5.46;100.00;101445.16;3721677;37;21017;-49
2022/04/13 05:36:30;;;;;;;;;16.00;14.75;;;;;5.75;100.00;101414.97;3722194;37;21054;-48
2022/04/13 05:39:01;;;;;;;;;10.00;9.25;;;;;5.86;100.00;101418.44;3721861;37;21054;-50
2022/04/13 05:41:28;;;;;;;;;13.50;12.50;;;;;6.11;100.00;101451.28;3722038;37;20911;-48
2022/04/13 05:44:02;;;;;;;;;9.50;8.50;;;;;6.12;100.00;101428.81;3721048;38;21022;-49
2022/04/13 05:46:40;;;;;;;;;11.00;11.00;;;;;6.22;100.00;101470.03;3720863;38;20951;-46
2022/04/13 05:49:14;;;;;;;;;9.75;9.50;;;;;6.29;100.00;101438.91;3721149;37;21006;-47
2022/04/13 05:59:17;;;;;;;;;10.50;7.25;;;;;6.44;97.37;101453.69;3721057;38;20732;-47
2022/04/13 06:01:43;;;;;;;;;12.25;11.50;;;;;6.47;97.36;101453.44;3721117;37;20939;-47
2022/04/13 06:04:14;;;;;;;;;17.00;16.25;;;;;6.56;98.01;101423.03;3721473;37;20986;-48
2022/04/13 06:06:48;;;;;;;;;12.00;11.75;;;;;6.73;97.62;101426.06;3721364;38;20974;-48
2022/04/13 06:19:30;;;;;;;;;11.75;10.50;;;;;6.88;94.64;101432.72;3721166;38;20910;-48
2022/04/13 06:22:04;;;;;;;;;10.00;10.00;;;;;6.97;94.33;101443.53;3721277;37;20958;-48
2022/04/13 06:27:10;;;;;;;;;12.75;12.00;;;;;7.29;93.73;101410.94;3720977;38;20981;-47
2022/04/13 06:29:40;;;;;;;;;12.25;11.50;;;;;7.45;92.86;101431.06;3720970;38;20936;-47
2022/04/13 06:32:14;;;;;;;;;10.75;10.75;;;;;7.51;92.19;101439.44;3721202;38;20889;-47
2022/04/13 06:34:49;;;;;;;;;9.75;9.50;;;;;7.59;92.27;101411.78;3721077;37;20955;-49
2022/04/13 06:37:22;;;;;;;;;11.00;9.75;;;;;7.71;90.08;101429.50;3721377;38;20879;-48
2022/04/13 06:47:44;;;;;;;;;8.00;8.00;;;;;8.17;86.90;101408.97;3721380;37;20868;-49
2022/04/13 06:50:22;;;;;;;;;9.25;9.25;;;;;8.24;85.67;101407.38;3722155;37;20883;-48
2022/04/13 06:53:00;;;;;;;;;8.50;8.25;;;;;8.22;83.45;101415.63;3722028;37;20863;-47
2022/04/13 06:58:09;;;;;;;;;10.25;10.00;;;;;8.45;81.55;101423.34;3721128;38;20802;-49
2022/04/13 07:03:13;;;;;;;;;6.50;6.25;;;;;8.87;79.84;101427.22;3721033;37;20762;-48
2022/04/13 07:08:20;;;;;;;;;6.75;6.00;;;;;8.76;75.69;101394.22;3721421;38;20926;-49
2022/04/13 07:10:50;;;;;;;;;9.00;9.00;;;;;8.72;73.13;101407.16;3721295;37;20831;-48
2022/04/13 07:13:22;;;;;;;;;8.50;7.00;;;;;8.97;72.45;101432.56;3720289;37;20614;-47
2022/04/13 07:18:26;;;;;;;;;6.00;5.25;;;;;9.02;68.62;101435.66;3721467;38;20848;-48
2022/04/13 07:21:01;;;;;;;;;8.75;8.00;;;;;9.18;67.40;101414.22;3721684;38;20838;-49
2022/04/13 07:23:36;;;;;;;;;7.25;7.25;;;;;9.17;66.82;101365.78;3722061;38;20625;-49
2022/04/13 07:26:11;;;;;;;;;6.00;6.00;;;;;9.52;62.74;101438.69;3722119;37;20732;-48
2022/04/13 07:28:43;;;;;;;;;8.00;7.00;;;;;9.43;58.35;101387.41;3721092;37;20753;-47
2022/04/13 07:31:13;;;;;;;;;4.50;4.50;;;;;9.78;59.43;101408.16;3721280;37;20809;-47
2022/04/13 07:33:48;;;;;;;;;9.00;8.50;;;;;9.60;55.83;101392.81;3721518;38;20780;-49
2022/04/13 07:36:19;;;;;;;;;7.50;7.50;;;;;9.69;55.90;101400.97;3721129;37;20671;-48
2022/04/13 07:38:52;;;;;;;;;7.75;6.75;;;;;9.82;54.86;101410.37;3720642;38;20683;-48
2022/04/13 07:46:39;;;;;;;;;6.25;5.50;;;;;10.36;53.45;101375.06;3721370;38;20713;-48
2022/04/13 07:49:09;;;;;;;;;4.00;4.00;;;;;10.32;48.61;101385.34;3721262;38;20606;-47
2022/04/13 07:54:17;;;;;;;;;5.00;5.00;;;;;10.43;48.87;101365.25;3721583;37;20800;-48
2022/04/13 08:01:56;;;;;;;;;2.25;2.25;;;;;10.48;44.29;101377.28;3721421;38;20753;-47
2022/04/13 08:04:27;;;;;;;;;2.00;2.00;;;;;10.52;44.32;101375.94;3721126;37;20774;-47
2022/04/13 08:07:01;;;;;;;;;5.00;4.00;;;;;10.62;44.52;101397.47;3721100;38;20783;-47
2022/04/13 08:11:58;;;;;;;;;4.00;4.00;;;;;10.78;44.59;101370.47;3721289;37;20766;-47
2022/04/13 08:19:27;;;;;;;;;4.00;3.00;;;;;11.12;42.12;101364.91;3721354;38;20734;-48
2022/04/13 08:27:10;;;;;;;;;2.00;2.00;;;;;11.23;40.89;101352.91;3720373;37;20592;-47
2022/04/13 08:29:45;;;;;;;;;0.25;0.00;;;;;11.40;39.86;101332.94;3721175;37;20647;-49
2022/04/13 08:32:16;;;;;;;;;0.00;0.00;;;;;11.46;39.13;101328.66;3720750;37;20706;-48
2022/04/13 08:34:44;;;;;;;;;2.00;1.50;;;;;11.55;38.84;101371.03;3721473;38;20942;-48
2022/04/13 08:37:14;;;;;;;;;0.00;0.00;;;;;11.41;39.49;101363.59;3720883;38;20670;-48
2022/04/13 08:39:49;;;;;;;;;2.00;2.00;;;;;11.56;39.74;101353.72;3721504;37;20966;-48
2022/04/13 08:42:31;;;;;;;;;1.75;1.75;;;;;11.75;39.58;101322.69;3721420;37;20722;-48
2022/04/13 08:45:12;;;;;;;;;0.25;0.25;;;;;12.00;38.85;101373.19;3720923;38;20635;-48
2022/04/13 08:50:10;;;;;;;;;2.00;1.00;;;;;11.73;37.90;101403.37;3721565;37;20700;-49
2022/04/13 08:52:39;;;;;;;;;0.75;0.75;;;;;11.79;37.78;101356.63;3721413;37;20728;-47
2022/04/13 08:55:11;;;;;;;;;1.25;1.00;;;;;11.70;37.17;101338.66;3720386;37;20619;-50
2022/04/13 08:57:45;;;;;;;;;2.00;1.00;;;;;11.60;38.35;101330.69;3720744;37;20734;-48
2022/04/13 09:03:09;;;;;;;;;2.00;2.00;;;;;11.68;38.56;101338.81;3721676;38;20677;-49
2022/04/13 09:10:46;;;;;;;;;2.00;2.00;;;;;11.96;38.55;101347.41;3721193;38;20658;-48
2022/04/13 09:13:19;;;;;;;;;3.00;3.00;;;;;12.41;38.42;101354.06;3721417;38;20692;-48
2022/04/13 09:15:53;;;;;;;;;2.00;2.00;;;;;12.36;37.27;101348.31;3721180;37;20674;-49
2022/04/13 09:18:20;;;;;;;;;2.00;2.00;;;;;12.42;37.60;101315.03;3721066;37;20634;-49
2022/04/13 09:20:47;;;;;;;;;3.00;3.00;;;;;12.44;36.63;101280.41;3721136;38;20680;-47
2022/04/13 09:23:17;;;;;;;;;2.00;2.00;;;;;12.57;36.83;101280.66;3720379;37;20913;-47
2022/04/13 09:33:23;;;;;;;;;0.25;0.25;;;;;12.35;35.01;101314.91;3721384;38;20653;-47
2022/04/13 09:35:54;;;;;;;;;2.00;2.00;;;;;12.27;35.13;101312.22;3721268;37;20855;-47
2022/04/13 09:38:28;;;;;;;;;2.00;1.00;;;;;12.54;34.49;101260.13;3721354;38;20592;-48
2022/04/13 09:41:05;;;;;;;;;2.00;2.00;;;;;13.02;34.03;101303.41;3720951;37;20702;-48
2022/04/13 09:43:58;;;;;;;;;1.25;1.25;;;;;13.35;32.65;101265.97;3721358;38;20626;-47
2022/04/13 09:52:00;;;;;;;;;1.00;1.00;;;;;13.11;31.60;101267.84;3721632;37;20779;-49
2022/04/13 09:54:30;;;;;;;;;1.00;1.00;;;;;13.30;31.16;101265.69;3720529;38;20649;-47
2022/04/13 09:57:04;;;;;;;;;0.75;0.75;;;;;13.40;29.91;101291.59;3721602;37;20670;-48
2022/04/13 10:02:13;;;;;;;;;2.00;1.50;;;;;13.15;30.82;101284.63;3721485;38;20809;-48
2022/04/13 10:04:40;;;;;;;;;0.00;0.00;;;;;13.06;31.16;101264.84;3720866;38;20556;-49
2022/04/13 10:07:18;;;;;;;;;5.00;2.00;;;;;13.00;31.44;101286.50;3721343;38;20804;-48
2022/04/13 10:09:52;;;;;;;;;0.75;0.25;;;;;13.22;31.72;101262.00;3720474;38;20571;-49
2022/04/13 10:12:27;;;;;;;;;1.00;1.00;;;;;13.27;31.21;101293.25;3721503;37;20551;-49
2022/04/13 10:17:46;;;;;;;;;1.00;0.50;;;;;13.31;31.53;101283.69;3721467;38;20593;-48
2022/04/13 10:20:13;;;;;;;;;5.00;4.00;;;;;13.36;31.35;101249.50;3720659;37;20498;-48
2022/04/13 10:22:43;;;;;;;;;0.50;0.50;;;;;13.35;31.48;101244.22;3721358;37;20674;-48
2022/04/13 10:25:17;;;;;;;;;1.25;1.25;;;;;13.48;30.99;101269.75;3720852;37;20550;-48
2022/04/13 10:27:57;;;;;;;;;1.00;1.00;;;;;13.30;30.29;101239.34;3721196;37;20565;-49
2022/04/13 10:38:12;;;;;;;;;56.50;47.50;;;;;13.97;27.70;101263.78;3721188;37;20848;-47
2022/04/13 10:43:21;;;;;;;;;2.25;2.00;;;;;13.46;28.72;101304.47;3721134;37;20411;-47
2022/04/13 10:45:55;;;;;;;;;2.75;2.75;;;;;13.57;29.46;101265.06;3721386;37;20638;-49
2022/04/13 10:54:02;;;;;;;;;1.75;1.50;;;;;13.50;29.02;101294.91;3721080;37;20702;-47
2022/04/13 10:56:36;;;;;;;;;2.00;1.00;;;;;13.62;28.04;101286.25;3721424;38;20559;-48
2022/04/13 11:01:46;;;;;;;;;2.00;2.00;;;;;13.39;28.42;101253.72;3721298;37;20351;-47
2022/04/13 11:04:23;;;;;;;;;1.00;1.00;;;;;13.38;28.56;101257.47;3721302;37;20540;-49
2022/04/13 11:06:54;;;;;;;;;2.25;2.25;;;;;13.47;28.68;101278.94;3720649;38;20381;-47
2022/04/13 11:12:05;;;;;;;;;6.50;5.75;;;;;13.64;28.95;101240.69;3721456;37;20640;-48
2022/04/13 11:14:55;;;;;;;;;3.00;3.00;;;;;13.69;29.11;101263.56;3721495;38;20515;-48
2022/04/13 11:17:25;;;;;;;;;1.00;0.00;;;;;13.82;28.74;101276.53;3721313;37;20699;-46
2022/04/13 11:20:14;;;;;;;;;3.50;3.25;;;;;13.84;28.74;101279.91;3721133;38;20540;-47
2022/04/13 11:33:34;;;;;;;;;1.25;1.25;;;;;13.98;28.17;101264.63;3720547;38;20325;-45
2022/04/13 11:36:09;;;;;;;;;0.00;0.00;;;;;13.83;27.31;101300.84;3721264;37;20270;-46
2022/04/13 11:38:45;;;;;;;;;0.75;0.75;;;;;13.82;27.72;101231.13;3721210;37;20593;-46
2022/04/13 11:41:17;;;;;;;;;1.00;1.00;;;;;13.93;27.34;101308.72;3721291;37;20387;-46
2022/04/13 11:43:44;;;;;;;;;0.00;0.00;;;;;13.84;27.25;101272.59;3721195;37;20562;-47
2022/04/13 11:46:39;;;;;;;;;0.00;0.00;;;;;13.82;27.26;101252.03;3721260;37;20495;-46
2022/04/13 11:49:11;;;;;;;;;1.00;0.50;;;;;13.83;27.52;101238.25;3720756;37;20344;-47
2022/04/13 11:51:39;;;;;;;;;2.75;2.00;;;;;13.84;27.77;101225.50;3721324;38;20429;-47
2022/04/13 11:54:10;;;;;;;;;0.25;0.25;;;;;13.81;27.51;101264.81;3721330;38;20495;-47
2022/04/13 11:59:22;;;;;;;;;0.00;0.00;;;;;13.59;27.49;101258.41;3721670;37;20520;-45
2022/04/13 12:01:57;;;;;;;;;0.75;0.00;;;;;13.61;27.92;101235.62;3720991;37;20599;-46
2022/04/13 12:04:25;;;;;;;;;1.00;0.75;;;;;13.58;27.72;101254.00;3721577;38;20587;-47
2022/04/13 12:11:55;;;;;;;;;1.25;1.25;;;;;13.62;27.83;101243.59;3721149;37;20627;-48
2022/04/13 12:14:26;;;;;;;;;2.25;2.25;;;;;13.56;27.89;101258.78;3720739;37;20260;-47
2022/04/13 12:16:57;;;;;;;;;0.00;0.00;;;;;13.59;28.14;101231.22;3721433;38;20366;-48
2022/04/13 12:19:28;;;;;;;;;1.25;0.75;;;;;13.56;28.20;101225.28;3721290;37;20662;-48
2022/04/13 12:27:10;;;;;;;;;2.00;2.00;;;;;13.58;28.28;101231.38;3721405;37;20454;-48
2022/04/13 12:29:45;;;;;;;;;1.75;1.75;;;;;13.59;28.04;101246.69;3720572;37;20455;-48
2022/04/13 12:32:19;;;;;;;;;3.00;2.00;;;;;13.51;27.85;101230.47;3721103;37;20446;-48
2022/04/13 12:34:58;;;;;;;;;1.75;1.25;;;;;13.70;27.43;101235.34;3721592;37;20398;-48
2022/04/13 12:37:32;;;;;;;;;3.75;3.25;;;;;13.71;27.13;101230.75;3721399;38;20576;-47
2022/04/13 12:40:19;;;;;;;;;1.00;1.00;;;;;13.69;27.42;101228.22;3720716;38;20296;-48
2022/04/13 12:42:51;;;;;;;;;2.00;2.00;;;;;13.87;27.94;101220.53;3721152;37;20474;-46
2022/04/13 12:45:17;;;;;;;;;3.00;2.50;;;;;13.77;27.60;101208.22;3721370;38;20435;-49
2022/04/13 13:05:54;;;;;;;;;1.50;1.00;;;;;14.14;27.34;101202.63;3721225;37;20301;-47
2022/04/13 13:08:21;;;;;;;;;1.00;1.00;;;;;14.16;27.87;101206.00;3721655;37;20661;-48
2022/04/13 13:10:55;;;;;;;;;0.25;0.00;;;;;14.16;27.67;101195.09;3721514;38;20388;-48
2022/04/13 13:13:38;;;;;;;;;2.75;1.50;;;;;13.97;27.80;101249.31;3721506;37;20393;-47
2022/04/13 13:18:36;;;;;;;;;0.25;0.25;;;;;13.78;27.47;101237.13;3721216;37;20395;-49
2022/04/13 13:21:11;;;;;;;;;0.00;0.00;;;;;13.72;27.47;101222.41;3721269;37;20365;-47
2022/04/13 13:23:48;;;;;;;;;1.25;1.25;;;;;13.73;27.83;101206.91;3721380;38;20404;-48
2022/04/13 13:26:22;;;;;;;;;2.25;2.00;;;;;13.64;27.76;101208.03;3721432;38;20373;-47
2022/04/13 13:31:31;;;;;;;;;3.75;3.00;;;;;13.42;28.30;101177.22;3721133;38;20373;-46
2022/04/13 13:34:04;;;;;;;;;2.00;1.25;;;;;13.51;28.30;101233.19;3721301;38;20407;-47
2022/04/13 13:36:31;;;;;;;;;1.00;1.00;;;;;13.52;28.42;101226.69;3720935;37;20237;-48
2022/04/13 13:38:59;;;;;;;;;1.00;1.00;;;;;13.55;28.69;101227.16;3720554;38;20445;-48
2022/04/13 13:44:04;;;;;;;;;3.00;1.75;;;;;13.55;29.09;101226.31;3721462;38;20419;-47
2022/04/13 13:46:37;;;;;;;;;1.75;1.00;;;;;13.34;29.47;101247.97;3721312;37;20269;-46
2022/04/13 13:54:17;;;;;;;;;1.00;1.00;;;;;13.37;29.19;101259.34;3721624;37;20384;-48
2022/04/13 13:56:48;;;;;;;;;2.00;1.50;;;;;13.35;29.49;101247.81;3721205;37;20338;-47
2022/04/13 13:59:16;;;;;;;;;2.50;2.00;;;;;13.41;29.35;101240.78;3720782;37;20279;-48
2022/04/13 14:01:42;;;;;;;;;1.75;1.00;;;;;13.37;29.25;101242.19;3720801;37;20183;-49
2022/04/13 14:04:09;;;;;;;;;3.00;2.50;;;;;13.33;28.91;101225.38;3721287;38;20226;-46
2022/04/13 14:11:41;;;;;;;;;2.75;1.75;;;;;13.26;29.15;101224.44;3721556;37;21301;-46
2022/04/13 14:14:19;;;;;;;;;2.00;2.00;;;;;13.38;29.13;101242.00;3721733;38;21277;-47
2022/04/13 14:34:31;;;;;;;;;3.50;3.50;;;;;13.36;29.78;101252.22;3722207;37;21271;-45
2022/04/13 14:37:06;;;;;;;;;4.25;3.75;;;;;13.37;29.47;101255.78;3722068;37;21261;-46
2022/04/13 14:39:37;;;;;;;;;5.25;4.25;;;;;13.39;29.59;101243.69;3722200;37;21445;-48
2022/04/13 14:44:46;;;;;;;;;5.50;3.50;;;;;13.42;29.37;101259.63;3722387;37;21215;-47
2022/04/13 14:47:25;;;;;;;;;3.75;1.25;;;;;13.27;29.30;101231.56;3721705;37;21201;-48
2022/04/13 14:49:58;;;;;;;;;2.00;2.00;;;;;13.23;28.89;101252.00;3721396;37;21215;-48
2022/04/13 14:52:34;;;;;;;;;2.25;1.25;;;;;13.33;28.35;101255.28;3721116;38;21290;-47
2022/04/13 14:55:08;;;;;;;;;0.50;0.50;;;;;13.38;27.06;101271.91;3720451;37;21168;-48
2022/04/13 15:02:42;;;;;;;;;2.00;1.00;;;;;13.32;27.19;101269.06;3720372;37;21086;-47
2022/04/13 15:05:16;;;;;;;;;3.00;3.00;;;;;13.33;27.02;101284.34;3721350;38;21290;-48
2022/04/13 15:07:47;;;;;;;;;3.25;3.25;;;;;13.26;26.90;101284.25;3721506;37;21138;-49
2022/04/13 15:10:15;;;;;;;;;2.00;1.50;;;;;13.17;26.39;101279.91;3721368;38;21136;-47
2022/04/13 15:12:49;;;;;;;;;5.25;5.25;;;;;13.11;26.88;101278.72;3721477;38;21245;-48
2022/04/13 15:15:17;;;;;;;;;1.50;1.50;;;;;13.09;27.21;101271.78;3721703;37;21293;-47
2022/04/13 15:17:48;;;;;;;;;3.00;2.50;;;;;13.04;27.18;101298.66;3720687;37;21142;-47
2022/04/13 15:20:14;;;;;;;;;10.00;10.00;;;;;12.98;27.50;101283.94;3721360;37;21268;-48
2022/04/13 15:25:12;;;;;;;;;2.00;1.00;;;;;12.97;27.12;101292.28;3720666;37;21215;-48
2022/04/13 15:30:11;;;;;;;;;2.75;1.75;;;;;12.92;27.20;101284.69;3721522;38;21252;-46
2022/04/13 15:32:38;;;;;;;;;4.00;2.50;;;;;12.96;27.23;101290.59;3721085;38;21118;-48
2022/04/13 15:37:40;;;;;;;;;2.00;2.00;;;;;12.78;27.38;101278.16;3720920;37;21206;-45
2022/04/13 15:40:12;;;;;;;;;2.75;2.25;;;;;12.95;27.27;101306.06;3721528;37;21177;-46
2022/04/13 15:42:46;;;;;;;;;2.50;2.00;;;;;12.90;27.28;101306.59;3720937;37;21029;-46
2022/04/13 15:50:29;;;;;;;;;15.00;13.00;;;;;12.86;27.51;101329.72;3721483;38;20975;-47
2022/04/13 15:53:07;;;;;;;;;2.00;1.75;;;;;12.83;27.69;101307.50;3721692;37;21507;-48
2022/04/13 15:55:38;;;;;;;;;4.00;4.00;;;;;12.76;28.20;101307.34;3721408;38;21180;-47
2022/04/13 15:58:09;;;;;;;;;1.50;0.25;;;;;12.74;28.38;101333.84;3720705;37;21101;-47
2022/04/13 16:00:39;;;;;;;;;1.00;1.00;;;;;12.63;28.01;101328.81;3720691;37;21224;-48
2022/04/13 16:03:14;;;;;;;;;0.50;0.50;;;;;12.61;28.38;101339.00;3721523;37;21094;-47
2022/04/13 16:05:48;;;;;;;;;2.75;1.75;;;;;12.58;28.48;101331.22;3720605;38;20942;-47
2022/04/13 16:08:22;;;;;;;;;1.25;1.25;;;;;12.48;28.85;101326.00;3721160;38;21154;-47
2022/04/13 16:16:06;;;;;;;;;1.00;1.00;;;;;12.33;29.28;101332.37;3721486;38;21158;-48
2022/04/13 16:18:40;;;;;;;;;2.50;2.50;;;;;12.25;29.83;101357.69;3721214;37;21134;-48
2022/04/13 16:34:02;;;;;;;;;25.50;24.75;;;;;11.88;31.43;101390.88;3721429;37;21125;-49
2022/04/13 16:36:33;;;;;;;;;3.50;3.50;;;;;11.80;32.02;101397.16;3720710;38;20987;-48
2022/04/13 16:39:04;;;;;;;;;3.50;3.00;;;;;11.72;32.58;101378.12;3721760;37;21060;-49
2022/04/13 16:44:11;;;;;;;;;4.25;4.00;;;;;11.56;33.46;101383.56;3721128;37;21095;-48
2022/04/13 16:46:47;;;;;;;;;4.00;3.00;;;;;11.54;33.88;101405.41;3721316;38;21076;-47
2022/04/13 16:54:27;;;;;;;;;4.00;4.00;;;;;11.31;35.18;101422.53;3720763;37;21159;-47
2022/04/13 16:57:02;;;;;;;;;3.50;3.50;;;;;11.35;35.37;101421.19;3720983;37;21036;-47
2022/04/13 16:59:33;;;;;;;;;1.50;0.50;;;;;11.15;35.37;101380.00;3721132;38;21052;-48
2022/04/13 17:02:07;;;;;;;;;5.00;5.00;;;;;11.25;35.97;101410.50;3721214;37;21045;-48
2022/04/13 17:04:35;;;;;;;;;2.25;2.25;;;;;11.20;35.89;101410.16;3720747;38;21148;-46
2022/04/13 17:07:24;;;;;;;;;2.25;2.25;;;;;11.21;36.08;101415.41;3721510;38;21076;-47
2022/04/13 17:12:22;;;;;;;;;5.25;5.25;;;;;11.11;36.54;101421.97;3721633;37;21117;-46
2022/04/13 17:20:05;;;;;;;;;5.50;5.50;;;;;11.09;36.06;101432.12;3721443;38;21032;-46
2022/04/13 17:22:42;;;;;;;;;6.00;6.00;;;;;11.04;35.94;101429.06;3720177;37;21045;-47
2022/04/13 17:25:17;;;;;;;;;4.00;4.00;;;;;11.02;35.81;101439.22;3721478;37;20957;-47
2022/04/13 17:27:47;;;;;;;;;6.00;6.00;;;;;10.94;35.78;101430.06;3720784;38;21087;-48
2022/04/13 17:30:18;;;;;;;;;3.50;3.50;;;;;11.01;36.11;101437.53;3721350;37;21161;-48
2022/04/13 17:43:08;;;;;;;;;8.00;8.00;;;;;11.01;35.94;101432.09;3721286;37;20967;-46
2022/04/13 17:45:36;;;;;;;;;12.50;11.75;;;;;11.01;36.03;101435.66;3721831;38;21138;-46
2022/04/13 17:48:07;;;;;;;;;7.00;7.00;;;;;10.99;36.27;101443.09;3721231;37;21047;-47
2022/04/13 17:53:16;;;;;;;;;10.00;10.00;;;;;10.85;36.13;101457.31;3721074;37;20983;-47
2022/04/13 17:55:54;;;;;;;;;12.50;12.00;;;;;10.84;36.67;101448.34;3721052;37;20950;-47
2022/04/13 17:58:25;;;;;;;;;6.75;6.75;;;;;10.84;36.77;101450.19;3721689;37;20868;-47
2022/04/13 18:03:22;;;;;;;;;9.25;9.25;;;;;10.78;36.86;101451.69;3720645;38;21018;-47
2022/04/13 18:18:41;;;;;;;;;10.50;10.00;;;;;10.64;36.94;101443.31;3721685;38;20932;-47
2022/04/13 18:21:12;;;;;;;;;11.50;11.50;;;;;10.76;36.74;101471.81;3720911;38;21026;-49
2022/04/13 18:23:42;;;;;;;;;10.75;10.25;;;;;10.56;36.97;101450.41;3721559;37;21026;-49
2022/04/13 18:33:41;;;;;;;;;12.75;11.75;;;;;10.71;37.32;101464.19;3721056;37;20894;-50
2022/04/13 18:36:16;;;;;;;;;12.00;9.50;;;;;10.73;37.32;101475.69;3721363;38;20955;-48
2022/04/13 18:38:42;;;;;;;;;9.00;7.50;;;;;10.71;37.22;101463.34;3721380;37;20924;-50
2022/04/13 18:43:46;;;;;;;;;7.00;7.00;;;;;10.77;37.32;101473.50;3721640;37;20902;-50
2022/04/13 18:48:55;;;;;;;;;8.25;7.75;;;;;10.78;37.33;101465.22;3720930;38;20935;-50
2022/04/13 18:51:26;;;;;;;;;8.50;8.25;;;;;10.69;37.48;101454.53;3721527;37;20804;-51
2022/04/13 19:06:41;;;;;;;;;9.00;8.25;;;;;10.64;38.11;101465.84;3721296;37;20844;-49
2022/04/13 19:09:12;;;;;;;;;8.25;8.00;;;;;10.53;38.14;101441.75;3721730;38;20982;-48